Time;durP1;ratioP1;P1;durP2;ratioP2;P2;SDS_P1;SDS_P2;PMS_P1;PMS_P2;Temp;Humidity;BMP_temperature;BMP_pressure;BME280_temperature;BME280_humidity;BME280_pressure;Samples;Min_cycle;Max_cycle;Signal;HPM_P1;HPM_P2
2023/03/10 00:02:55;;;;;;;1.80;1.80;;;;;;;;;;6252735;28;20407;-81
2023/03/10 00:05:55;;;;;;;8.95;4.80;;;;;;;;;;6247369;28;20294;-81
2023/03/10 00:08:56;;;;;;;0.83;0.83;;;;;;;;;;6247383;28;20108;-81
2023/03/10 00:11:56;;;;;;;5.90;5.47;;;;;;;;;;6248700;28;20013;-80
2023/03/10 00:14:56;;;;;;;3.13;2.83;;;;;;;;;;6247710;28;20025;-80
2023/03/10 00:17:56;;;;;;;8.00;7.33;;;;;;;;;;6242073;28;20021;-80
2023/03/10 00:20:57;;;;;;;5.00;4.57;;;;;;;;;;6248675;28;20479;-81
2023/03/10 00:23:58;;;;;;;3.60;3.40;;;;;;;;;;6243057;28;20073;-81
2023/03/10 00:26:59;;;;;;;7.60;6.83;;;;;;;;;;6239991;28;20472;-81
2023/03/10 00:29:59;;;;;;;3.00;2.67;;;;;;;;;;6245788;28;20056;-81
2023/03/10 00:33:00;;;;;;;7.53;5.13;;;;;;;;;;6245780;28;20089;-80
2023/03/10 00:36:20;;;;;;;4.60;4.33;;;;;;;;;;6242268;28;20010;-81
2023/03/10 00:39:20;;;;;;;11.32;5.03;;;;;;;;;;6246091;28;20392;-81
2023/03/10 00:42:21;;;;;;;6.20;5.67;;;;;;;;;;6249628;28;20091;-80
2023/03/10 00:45:21;;;;;;;5.73;5.23;;;;;;;;;;6250685;28;20387;-81
2023/03/10 00:48:22;;;;;;;6.23;4.63;;;;;;;;;;6246004;28;20558;-81
2023/03/10 00:51:22;;;;;;;12.17;4.90;;;;;;;;;;6254193;28;20021;-81
2023/03/10 00:54:22;;;;;;;6.97;2.47;;;;;;;;;;6245894;28;20063;-81
2023/03/10 00:57:22;;;;;;;4.85;4.40;;;;;;;;;;6244400;28;20064;-81
2023/03/10 01:00:23;;;;;;;2.93;2.83;;;;;;;;;;6245618;28;20471;-81
2023/03/10 01:03:23;;;;;;;4.60;4.37;;;;;;;;;;6252367;28;20021;-81
2023/03/10 01:06:24;;;;;;;6.23;4.00;;;;;;;;;;6246431;28;20428;-81
2023/03/10 01:09:24;;;;;;;10.73;4.63;;;;;;;;;;6246258;28;20404;-81
2023/03/10 01:12:24;;;;;;;3.40;3.10;;;;;;;;;;6236616;28;20029;-81
2023/03/10 01:15:25;;;;;;;5.90;5.43;;;;;;;;;;6247406;28;20017;-81
2023/03/10 01:18:25;;;;;;;3.93;3.70;;;;;;;;;;6265141;28;20024;-81
2023/03/10 01:21:27;;;;;;;1.33;1.30;;;;;;;;;;6247678;28;20104;-81
2023/03/10 01:24:27;;;;;;;4.30;3.92;;;;;;;;;;6253013;28;20102;-81
2023/03/10 01:27:27;;;;;;;4.83;4.53;;;;;;;;;;6245880;28;20057;-81
2023/03/10 01:30:28;;;;;;;2.57;2.37;;;;;;;;;;6242683;28;20391;-81
2023/03/10 01:33:28;;;;;;;16.23;6.43;;;;;;;;;;6242840;28;20106;-82
2023/03/10 01:36:28;;;;;;;7.93;4.27;;;;;;;;;;6235812;28;20013;-82
2023/03/10 01:39:28;;;;;;;3.37;3.17;;;;;;;;;;6257574;28;20044;-82
2023/03/10 01:42:29;;;;;;;2.30;2.17;;;;;;;;;;6248710;28;20382;-81
2023/03/10 01:45:29;;;;;;;2.53;2.43;;;;;;;;;;6246355;28;20475;-81
2023/03/10 01:48:32;;;;;;;8.48;5.47;;;;;;;;;;6244598;28;20024;-80
2023/03/10 01:51:34;;;;;;;5.45;5.13;;;;;;;;;;6251828;28;20014;-81
2023/03/10 01:54:48;;;;;;;4.72;4.38;;;;;;;;;;6244781;28;20021;-81
2023/03/10 01:57:50;;;;;;;4.95;4.53;;;;;;;;;;6247083;28;20033;-81
2023/03/10 02:00:52;;;;;;;3.53;3.33;;;;;;;;;;6250574;28;20016;-81
2023/03/10 02:04:00;;;;;;;4.60;4.18;;;;;;;;;;6252860;28;20009;-81
2023/03/10 02:07:01;;;;;;;5.10;4.68;;;;;;;;;;6227899;28;20013;-81
2023/03/10 02:10:02;;;;;;;5.13;4.63;;;;;;;;;;6245117;28;20120;-81
2023/03/10 02:13:02;;;;;;;3.25;3.03;;;;;;;;;;6247817;28;20090;-81
2023/03/10 02:16:03;;;;;;;3.63;3.37;;;;;;;;;;6245262;28;20053;-81
2023/03/10 02:19:05;;;;;;;26.40;5.87;;;;;;;;;;6245885;28;20021;-82
2023/03/10 02:22:05;;;;;;;;;;;;;;;;;;6248919;28;20021;-81
2023/03/10 02:25:08;;;;;;;3.47;3.20;;;;;;;;;;6244208;28;19952;-81
2023/03/10 02:28:08;;;;;;;1.58;1.52;;;;;;;;;;6244921;28;20423;-81
2023/03/10 02:31:10;;;;;;;3.27;3.07;;;;;;;;;;6241445;28;20464;-81
2023/03/10 02:34:11;;;;;;;1.20;1.20;;;;;;;;;;6242896;28;20264;-81
2023/03/10 02:37:22;;;;;;;1.23;1.23;;;;;;;;;;6244929;28;20093;-81
2023/03/10 02:40:32;;;;;;;2.67;1.95;;;;;;;;;;6244856;28;20044;-81
2023/03/10 02:43:33;;;;;;;0.52;0.52;;;;;;;;;;6240519;28;20025;-81
2023/03/10 02:46:33;;;;;;;1.40;1.33;;;;;;;;;;6245592;28;20491;-81
2023/03/10 02:49:34;;;;;;;1.03;1.03;;;;;;;;;;6244768;28;20029;-81
2023/03/10 02:52:39;;;;;;;1.53;1.43;;;;;;;;;;6255787;28;20044;-81
2023/03/10 02:55:40;;;;;;;1.08;1.08;;;;;;;;;;6246074;28;20018;-81
2023/03/10 02:58:40;;;;;;;0.30;0.30;;;;;;;;;;6244458;28;20096;-81
2023/03/10 03:01:40;;;;;;;4.37;1.70;;;;;;;;;;6244357;28;20013;-81
2023/03/10 03:04:41;;;;;;;1.57;0.50;;;;;;;;;;6228332;28;20508;-81
2023/03/10 03:07:41;;;;;;;5.23;2.27;;;;;;;;;;6248010;28;20021;-81
2023/03/10 03:10:41;;;;;;;1.13;1.03;;;;;;;;;;6256391;28;20045;-81
2023/03/10 03:13:41;;;;;;;0.60;0.60;;;;;;;;;;6248117;28;20494;-82
2023/03/10 03:16:42;;;;;;;0.77;0.77;;;;;;;;;;6259528;28;20013;-82
2023/03/10 03:19:42;;;;;;;3.30;2.40;;;;;;;;;;6242532;28;20020;-81
2023/03/10 03:22:43;;;;;;;1.23;1.13;;;;;;;;;;6248842;28;20379;-82
2023/03/10 03:25:46;;;;;;;4.00;1.70;;;;;;;;;;6235815;28;20500;-81
2023/03/10 03:28:47;;;;;;;2.58;1.55;;;;;;;;;;6248556;28;20017;-81
2023/03/10 03:31:47;;;;;;;1.33;1.33;;;;;;;;;;6247568;28;20585;-81
2023/03/10 03:34:47;;;;;;;0.25;0.25;;;;;;;;;;6250158;28;20030;-82
2023/03/10 03:37:47;;;;;;;1.13;0.80;;;;;;;;;;6250569;28;20479;-82
2023/03/10 03:40:47;;;;;;;1.13;1.08;;;;;;;;;;6252965;28;20024;-81
2023/03/10 03:43:47;;;;;;;2.43;2.23;;;;;;;;;;6252135;28;20044;-81
2023/03/10 03:46:48;;;;;;;1.83;1.38;;;;;;;;;;6251051;28;20673;-82
2023/03/10 03:49:48;;;;;;;0.57;0.57;;;;;;;;;;6248582;28;20071;-82
2023/03/10 03:52:49;;;;;;;0.88;0.88;;;;;;;;;;6251078;28;20517;-82
2023/03/10 03:55:50;;;;;;;3.95;2.47;;;;;;;;;;6252974;28;20533;-82
2023/03/10 03:58:50;;;;;;;2.53;2.33;;;;;;;;;;6250423;28;20100;-82
2023/03/10 04:01:50;;;;;;;0.40;0.40;;;;;;;;;;6236294;28;20030;-82
2023/03/10 04:04:53;;;;;;;0.45;0.45;;;;;;;;;;6239371;28;20529;-82
2023/03/10 04:07:54;;;;;;;2.72;2.47;;;;;;;;;;6251847;28;20745;-83
2023/03/10 04:10:54;;;;;;;0.30;0.30;;;;;;;;;;6251164;28;20076;-82
2023/03/10 04:13:54;;;;;;;1.93;1.83;;;;;;;;;;6258137;28;20021;-82
2023/03/10 04:16:54;;;;;;;0.47;0.47;;;;;;;;;;6264631;28;20036;-83
2023/03/10 04:19:55;;;;;;;1.07;1.07;;;;;;;;;;6230936;28;20047;-82
2023/03/10 04:22:55;;;;;;;0.30;0.30;;;;;;;;;;6256843;28;20592;-82
2023/03/10 04:25:56;;;;;;;0.53;0.53;;;;;;;;;;6257916;28;20063;-81
2023/03/10 04:28:57;;;;;;;4.85;2.13;;;;;;;;;;6249228;28;20075;-82
2023/03/10 04:31:57;;;;;;;1.67;1.57;;;;;;;;;;6237538;28;20509;-83
2023/03/10 04:34:57;;;;;;;0.40;0.40;;;;;;;;;;6252132;28;20458;-82
2023/03/10 04:37:57;;;;;;;0.87;0.87;;;;;;;;;;6250155;28;20033;-82
2023/03/10 04:40:57;;;;;;;1.80;1.70;;;;;;;;;;6244620;28;20035;-82
2023/03/10 04:43:58;;;;;;;0.87;0.87;;;;;;;;;;6242303;28;20017;-82
2023/03/10 04:46:58;;;;;;;0.20;0.20;;;;;;;;;;6248682;28;20368;-81
2023/03/10 04:49:58;;;;;;;0.70;0.70;;;;;;;;;;6242052;28;20013;-82
2023/03/10 04:52:59;;;;;;;0.67;0.67;;;;;;;;;;6242952;28;20463;-82
2023/03/10 04:56:00;;;;;;;2.63;1.17;;;;;;;;;;6234531;28;20025;-82
2023/03/10 04:59:00;;;;;;;0.40;0.40;;;;;;;;;;6247539;28;20109;-82
2023/03/10 05:02:00;;;;;;;0.20;0.20;;;;;;;;;;6248134;28;20017;-82
2023/03/10 05:05:01;;;;;;;0.35;0.35;;;;;;;;;;6249921;28;20379;-82
2023/03/10 05:08:03;;;;;;;3.20;3.00;;;;;;;;;;6253658;28;20018;-82
2023/03/10 05:11:06;;;;;;;0.50;0.50;;;;;;;;;;6247595;28;20053;-81
2023/03/10 05:14:07;;;;;;;0.73;0.70;;;;;;;;;;6228247;28;20475;-82
2023/03/10 05:17:07;;;;;;;0.50;0.50;;;;;;;;;;6241749;28;20017;-82
2023/03/10 05:20:08;;;;;;;0.77;0.77;;;;;;;;;;6216736;28;20057;-82
2023/03/10 05:23:08;;;;;;;0.80;0.80;;;;;;;;;;6246825;28;20034;-81
2023/03/10 05:26:09;;;;;;;1.20;1.17;;;;;;;;;;6245216;28;20029;-81
2023/03/10 05:29:09;;;;;;;0.33;0.33;;;;;;;;;;6245716;28;20195;-82
2023/03/10 05:32:09;;;;;;;9.55;2.25;;;;;;;;;;6239167;28;20029;-81
2023/03/10 05:35:11;;;;;;;0.37;0.37;;;;;;;;;;6239839;28;20487;-82
2023/03/10 05:38:11;;;;;;;1.52;1.48;;;;;;;;;;6247412;28;20438;-82
2023/03/10 05:41:11;;;;;;;1.97;1.87;;;;;;;;;;6246465;28;20018;-82
2023/03/10 05:44:11;;;;;;;1.57;1.43;;;;;;;;;;6231871;28;20071;-82
2023/03/10 05:47:13;;;;;;;1.80;1.70;;;;;;;;;;6245691;28;20164;-82
2023/03/10 05:50:13;;;;;;;2.50;2.33;;;;;;;;;;6251480;28;20021;-81
2023/03/10 05:53:14;;;;;;;1.27;1.23;;;;;;;;;;6247059;28;20519;-81
2023/03/10 05:56:18;;;;;;;2.25;2.15;;;;;;;;;;6246194;28;20303;-82
2023/03/10 05:59:18;;;;;;;0.95;0.95;;;;;;;;;;6245938;28;20509;-81
2023/03/10 06:02:18;;;;;;;1.30;1.30;;;;;;;;;;6249670;28;20047;-81
2023/03/10 06:05:19;;;;;;;1.27;1.27;;;;;;;;;;6248497;28;20025;-81
2023/03/10 06:08:19;;;;;;;2.47;2.33;;;;;;;;;;6258190;28;20032;-81
2023/03/10 06:11:19;;;;;;;1.80;1.70;;;;;;;;;;6244585;28;20014;-80
2023/03/10 06:14:20;;;;;;;1.10;1.03;;;;;;;;;;6241381;28;20057;-80
2023/03/10 06:17:20;;;;;;;1.57;1.50;;;;;;;;;;6241101;28;20010;-81
2023/03/10 06:20:20;;;;;;;2.90;2.70;;;;;;;;;;6249003;28;20060;-80
2023/03/10 06:23:21;;;;;;;2.57;2.20;;;;;;;;;;6237916;28;20013;-80
2023/03/10 06:26:21;;;;;;;3.87;3.30;;;;;;;;;;6243220;28;20064;-79
2023/03/10 06:29:23;;;;;;;2.07;1.97;;;;;;;;;;6240526;28;20025;-80
2023/03/10 06:32:23;;;;;;;1.75;1.65;;;;;;;;;;6236684;28;20022;-78
2023/03/10 06:35:23;;;;;;;5.10;1.47;;;;;;;;;;6251005;28;20041;-80
2023/03/10 06:38:24;;;;;;;2.93;2.73;;;;;;;;;;6241565;28;20028;-81
2023/03/10 06:41:24;;;;;;;3.43;3.13;;;;;;;;;;6250512;28;20563;-80
2023/03/10 06:44:24;;;;;;;0.60;0.60;;;;;;;;;;6222019;28;20035;-80
2023/03/10 06:47:25;;;;;;;0.87;0.83;;;;;;;;;;6244843;28;20108;-78
2023/03/10 06:50:25;;;;;;;2.13;1.97;;;;;;;;;;6237680;28;20025;-80
2023/03/10 06:53:26;;;;;;;6.37;2.30;;;;;;;;;;6238486;28;20046;-81
2023/03/10 06:56:26;;;;;;;11.07;1.73;;;;;;;;;;6244693;28;20018;-81
2023/03/10 06:59:26;;;;;;;2.30;2.10;;;;;;;;;;6247583;28;20021;-80
2023/03/10 07:02:26;;;;;;;1.37;1.37;;;;;;;;;;6226187;28;20383;-80
2023/03/10 07:05:26;;;;;;;1.87;1.77;;;;;;;;;;6224939;28;20314;-80
2023/03/10 07:08:27;;;;;;;1.77;1.67;;;;;;;;;;6236069;28;20028;-80
2023/03/10 07:11:27;;;;;;;1.83;1.73;;;;;;;;;;6239622;28;20017;-80
2023/03/10 07:14:27;;;;;;;0.50;0.50;;;;;;;;;;6231559;28;20029;-80
2023/03/10 07:17:27;;;;;;;0.90;0.90;;;;;;;;;;6240004;28;20025;-80
2023/03/10 07:20:28;;;;;;;1.20;1.20;;;;;;;;;;6236869;28;20443;-77
2023/03/10 07:23:28;;;;;;;2.03;1.43;;;;;;;;;;6234081;28;20097;-78
2023/03/10 07:26:28;;;;;;;1.48;1.38;;;;;;;;;;6233319;28;20037;-78
2023/03/10 07:29:28;;;;;;;1.97;1.60;;;;;;;;;;6212464;28;20096;-77
2023/03/10 07:32:29;;;;;;;0.40;0.40;;;;;;;;;;6236903;28;20016;-77
2023/03/10 07:35:29;;;;;;;0.63;0.63;;;;;;;;;;6234055;28;20088;-77
2023/03/10 07:38:29;;;;;;;0.30;0.30;;;;;;;;;;6236325;28;20390;-77
2023/03/10 07:41:29;;;;;;;0.45;0.45;;;;;;;;;;6236569;28;21247;-77
2023/03/10 07:44:29;;;;;;;0.57;0.57;;;;;;;;;;6233858;28;20097;-78
2023/03/10 07:47:30;;;;;;;0.40;0.40;;;;;;;;;;6233533;28;20104;-79
2023/03/10 07:50:30;;;;;;;4.10;2.33;;;;;;;;;;6240462;28;20018;-77
2023/03/10 07:53:30;;;;;;;0.47;0.47;;;;;;;;;;6245983;28;20471;-78
2023/03/10 07:56:30;;;;;;;1.47;1.00;;;;;;;;;;6247522;28;20104;-77
2023/03/10 07:59:31;;;;;;;0.60;0.60;;;;;;;;;;6239149;28;20022;-78
2023/03/10 08:02:31;;;;;;;0.30;0.30;;;;;;;;;;6241376;28;20436;-79
2023/03/10 08:05:31;;;;;;;8.40;0.50;;;;;;;;;;6241802;28;20045;-78
2023/03/10 08:08:31;;;;;;;6.83;0.70;;;;;;;;;;6238500;28;20022;-77
2023/03/10 08:11:31;;;;;;;0.50;0.47;;;;;;;;;;6234485;28;20484;-77
2023/03/10 08:14:32;;;;;;;4.33;1.97;;;;;;;;;;6246030;28;20087;-77
2023/03/10 08:17:33;;;;;;;1.07;1.00;;;;;;;;;;6248296;28;20009;-77
2023/03/10 08:20:34;;;;;;;0.38;0.38;;;;;;;;;;6254143;28;20021;-77
2023/03/10 08:23:35;;;;;;;2.00;1.48;;;;;;;;;;6250555;28;20017;-76
2023/03/10 08:26:35;;;;;;;0.47;0.47;;;;;;;;;;6238409;28;20543;-77
2023/03/10 08:29:35;;;;;;;1.95;1.02;;;;;;;;;;6246719;28;20024;-77
2023/03/10 08:32:35;;;;;;;0.50;0.50;;;;;;;;;;6242414;28;20103;-77
2023/03/10 08:35:36;;;;;;;1.63;1.53;;;;;;;;;;6246694;28;20028;-77
2023/03/10 08:38:36;;;;;;;0.20;0.20;;;;;;;;;;6245520;28;20021;-78
2023/03/10 08:41:39;;;;;;;0.73;0.73;;;;;;;;;;6246846;28;20415;-77
2023/03/10 08:44:39;;;;;;;0.82;0.82;;;;;;;;;;6237110;28;20026;-77
2023/03/10 08:47:39;;;;;;;0.10;0.10;;;;;;;;;;6243475;28;20506;-77
2023/03/10 08:50:39;;;;;;;0.10;0.10;;;;;;;;;;6238663;28;20021;-77
2023/03/10 08:53:40;;;;;;;0.98;0.98;;;;;;;;;;6240944;28;20103;-76
2023/03/10 08:56:40;;;;;;;0.77;0.77;;;;;;;;;;6236641;28;20029;-76
2023/03/10 08:59:40;;;;;;;4.07;1.53;;;;;;;;;;6241707;28;20096;-77
2023/03/10 09:02:40;;;;;;;0.10;0.10;;;;;;;;;;6228860;28;20076;-76
2023/03/10 09:05:41;;;;;;;3.73;0.77;;;;;;;;;;6246102;28;20060;-77
2023/03/10 09:08:41;;;;;;;0.50;0.50;;;;;;;;;;6245107;28;20450;-77
2023/03/10 09:11:41;;;;;;;0.50;0.50;;;;;;;;;;6249020;28;20474;-77
2023/03/10 09:14:42;;;;;;;0.17;0.17;;;;;;;;;;6254342;28;20443;-77
2023/03/10 09:17:42;;;;;;;0.10;0.10;;;;;;;;;;6245730;28;20025;-76
2023/03/10 09:20:43;;;;;;;0.70;0.70;;;;;;;;;;6245401;28;20495;-77
2023/03/10 09:23:45;;;;;;;0.97;0.90;;;;;;;;;;6240137;28;20030;-77
2023/03/10 09:26:45;;;;;;;0.30;0.30;;;;;;;;;;6242623;28;20113;-77
2023/03/10 09:29:45;;;;;;;0.33;0.33;;;;;;;;;;6251103;28;20017;-77
2023/03/10 09:32:46;;;;;;;1.17;0.90;;;;;;;;;;6244505;28;20017;-76
2023/03/10 09:35:46;;;;;;;0.55;0.55;;;;;;;;;;6220161;28;20468;-75
2023/03/10 09:38:47;;;;;;;0.83;0.83;;;;;;;;;;6217250;28;20068;-76
2023/03/10 09:41:48;;;;;;;0.10;0.10;;;;;;;;;;6240136;28;20027;-76
2023/03/10 09:44:48;;;;;;;0.38;0.38;;;;;;;;;;6228180;28;20555;-77
2023/03/10 09:47:52;;;;;;;0.40;0.40;;;;;;;;;;6235380;28;20030;-76
2023/03/10 09:50:55;;;;;;;2.30;2.10;;;;;;;;;;6232892;28;20029;-77
2023/03/10 09:54:10;;;;;;;0.70;0.70;;;;;;;;;;6235573;28;20025;-76
2023/03/10 09:57:15;;;;;;;0.10;0.10;;;;;;;;;;6236425;28;20097;-77
2023/03/10 10:00:19;;;;;;;2.90;1.45;;;;;;;;;;6232962;28;20049;-76
2023/03/10 10:03:21;;;;;;;0.98;0.98;;;;;;;;;;6233312;28;20097;-76
2023/03/10 10:06:25;;;;;;;0.20;0.20;;;;;;;;;;6234539;28;20232;-77
2023/03/10 10:09:33;;;;;;;0.70;0.70;;;;;;;;;;6239514;28;20461;-77
2023/03/10 10:12:34;;;;;;;0.43;0.43;;;;;;;;;;6235898;28;20025;-77
2023/03/10 10:15:36;;;;;;;1.30;1.20;;;;;;;;;;6230559;28;20013;-76
2023/03/10 10:18:38;;;;;;;0.50;0.50;;;;;;;;;;6230056;28;20017;-77
2023/03/10 10:21:42;;;;;;;0.30;0.30;;;;;;;;;;6237054;28;20034;-77
2023/03/10 10:25:05;;;;;;;0.20;0.20;;;;;;;;;;6238124;28;20071;-77
2023/03/10 10:28:15;;;;;;;1.75;1.15;;;;;;;;;;6229856;28;20034;-77
2023/03/10 10:31:23;;;;;;;1.00;0.88;;;;;;;;;;6236005;28;20037;-77
2023/03/10 10:34:23;;;;;;;1.30;1.20;;;;;;;;;;6236196;28;20084;-78
2023/03/10 10:37:27;;;;;;;0.30;0.30;;;;;;;;;;6235470;28;20026;-77
2023/03/10 10:40:28;;;;;;;0.30;0.30;;;;;;;;;;6241116;28;20155;-77
2023/03/10 10:43:28;;;;;;;;;;;;;;;;;;6238615;28;20560;-77
2023/03/10 10:46:29;;;;;;;0.70;0.70;;;;;;;;;;6236415;28;19940;-77
2023/03/10 10:49:32;;;;;;;0.20;0.20;;;;;;;;;;6239278;28;20028;-78
2023/03/10 10:52:33;;;;;;;1.05;0.50;;;;;;;;;;6237543;28;20021;-77
2023/03/10 10:55:33;;;;;;;0.43;0.43;;;;;;;;;;6230991;28;20100;-77
2023/03/10 10:58:34;;;;;;;0.40;0.40;;;;;;;;;;6240011;28;20025;-77
2023/03/10 11:01:49;;;;;;;0.30;0.30;;;;;;;;;;6235570;28;20092;-77
2023/03/10 11:04:49;;;;;;;0.65;0.65;;;;;;;;;;6230713;28;20400;-77
2023/03/10 11:07:51;;;;;;;0.30;0.30;;;;;;;;;;6239257;28;20017;-77
2023/03/10 11:10:51;;;;;;;;;;;;;;;;;;6237108;28;20037;-78
2023/03/10 11:13:56;;;;;;;1.27;1.08;;;;;;;;;;6241895;28;19912;-77
2023/03/10 11:16:58;;;;;;;0.68;0.68;;;;;;;;;;6244010;28;20018;-78
2023/03/10 11:19:58;;;;;;;1.60;1.33;;;;;;;;;;6244911;28;20083;-78
2023/03/10 11:23:17;;;;;;;0.40;0.40;;;;;;;;;;6241619;28;20108;-78
2023/03/10 11:26:32;;;;;;;0.50;0.50;;;;;;;;;;6235801;28;20826;-77
2023/03/10 11:29:50;;;;;;;1.10;1.00;;;;;;;;;;6241044;28;20030;-78
2023/03/10 11:33:05;;;;;;;0.38;0.38;;;;;;;;;;6237467;28;20111;-77
2023/03/10 11:36:11;;;;;;;0.10;0.10;;;;;;;;;;6245499;28;20472;-77
2023/03/10 11:39:24;;;;;;;1.77;1.42;;;;;;;;;;6237897;28;20030;-79
2023/03/10 11:42:40;;;;;;;0.88;0.50;;;;;;;;;;6238224;28;20022;-79
2023/03/10 11:45:51;;;;;;;0.68;0.68;;;;;;;;;;6229458;28;20033;-78
2023/03/10 11:48:58;;;;;;;0.85;0.85;;;;;;;;;;6239748;28;20064;-78
2023/03/10 11:51:59;;;;;;;4.65;1.65;;;;;;;;;;6244861;28;20018;-79
2023/03/10 11:55:03;;;;;;;5.90;2.45;;;;;;;;;;6244445;28;20369;-78
2023/03/10 11:58:04;;;;;;;1.58;1.48;;;;;;;;;;6241152;28;20399;-79
2023/03/10 12:01:06;;;;;;;1.33;1.20;;;;;;;;;;6235483;28;20021;-79
2023/03/10 12:04:13;;;;;;;1.27;1.27;;;;;;;;;;6242279;28;20018;-80
2023/03/10 12:07:18;;;;;;;1.65;1.55;;;;;;;;;;6250055;28;20079;-80
2023/03/10 12:10:20;;;;;;;1.58;1.00;;;;;;;;;;6246629;28;20427;-83
2023/03/10 12:13:22;;;;;;;3.50;2.97;;;;;;;;;;6255110;28;20132;-83
2023/03/10 12:16:24;;;;;;;2.90;2.70;;;;;;;;;;6241250;28;20021;-84
2023/03/10 12:19:24;;;;;;;2.60;1.85;;;;;;;;;;6243546;28;20029;-85
2023/03/10 12:22:34;;;;;;;1.40;1.30;;;;;;;;;;6244683;28;20103;-84
2023/03/10 12:25:38;;;;;;;4.85;2.58;;;;;;;;;;6247847;28;20029;-87
2023/03/10 12:28:38;;;;;;;0.22;0.22;;;;;;;;;;6250498;28;20029;-87
2023/03/10 12:31:41;;;;;;;0.97;0.97;;;;;;;;;;6236581;28;20083;-85
2023/03/10 12:34:42;;;;;;;0.30;0.30;;;;;;;;;;6245587;28;20518;-83
2023/03/10 12:37:42;;;;;;;4.73;2.70;;;;;;;;;;6239016;28;20024;-83
2023/03/10 12:40:50;;;;;;;3.77;1.03;;;;;;;;;;6227632;28;20393;-84
2023/03/10 12:43:53;;;;;;;7.60;3.70;;;;;;;;;;6233948;28;20034;-87
2023/03/10 12:47:09;;;;;;;8.77;7.38;;;;;;;;;;6247580;28;20029;-87
2023/03/10 12:50:28;;;;;;;6.57;5.93;;;;;;;;;;6223876;28;20037;-86
2023/03/10 12:53:35;;;;;;;3.17;2.97;;;;;;;;;;6238986;28;20485;-86
2023/03/10 12:56:41;;;;;;;0.60;0.60;;;;;;;;;;6219345;28;20018;-86
2023/03/10 12:59:59;;;;;;;2.92;2.75;;;;;;;;;;6253617;28;20021;-89
2023/03/10 13:03:03;;;;;;;1.23;1.20;;;;;;;;;;6245587;28;20623;-90
2023/03/10 13:06:19;;;;;;;0.45;0.45;;;;;;;;;;6244001;28;20061;-87
2023/03/10 13:09:28;;;;;;;2.28;1.58;;;;;;;;;;6232886;28;20060;-87
2023/03/10 13:12:34;;;;;;;1.00;1.00;;;;;;;;;;6230185;28;20021;-86
2023/03/10 13:15:34;;;;;;;8.88;5.65;;;;;;;;;;6245184;28;20021;-86
2023/03/10 13:18:34;;;;;;;0.67;0.67;;;;;;;;;;6263584;28;20084;-81
2023/03/10 13:21:36;;;;;;;2.93;2.10;;;;;;;;;;6246356;28;20117;-85
2023/03/10 13:24:41;;;;;;;0.20;0.20;;;;;;;;;;6234304;28;20017;-84
2023/03/10 13:27:42;;;;;;;2.58;2.40;;;;;;;;;;6245014;28;20100;-86
2023/03/10 13:30:43;;;;;;;2.72;2.42;;;;;;;;;;6253275;28;20033;-88
2023/03/10 13:33:45;;;;;;;3.17;2.80;;;;;;;;;;6242524;28;20083;-88
2023/03/10 13:36:45;;;;;;;2.33;1.85;;;;;;;;;;6273460;28;20017;-89
2023/03/10 13:39:46;;;;;;;0.90;0.90;;;;;;;;;;6272259;23;20092;-87
2023/03/10 13:42:46;;;;;;;2.20;2.10;;;;;;;;;;6248088;28;20049;-87
2023/03/10 13:45:52;;;;;;;0.77;0.77;;;;;;;;;;6266045;28;20035;-87
2023/03/10 13:48:54;;;;;;;3.50;2.75;;;;;;;;;;6271440;28;20408;-87
2023/03/10 13:51:58;;;;;;;1.55;1.45;;;;;;;;;;6254575;28;20036;-87
2023/03/10 13:55:11;;;;;;;0.98;0.98;;;;;;;;;;6248508;28;20017;-88
2023/03/10 13:58:12;;;;;;;0.65;0.63;;;;;;;;;;6243979;28;20108;-88
2023/03/10 14:01:23;;;;;;;0.40;0.40;;;;;;;;;;6239480;28;20021;-88
2023/03/10 14:04:43;;;;;;;0.88;0.88;;;;;;;;;;6248984;28;20028;-89
2023/03/10 14:07:56;;;;;;;1.67;1.58;;;;;;;;;;6225418;28;20030;-89
2023/03/10 14:11:20;;;;;;;0.70;0.70;;;;;;;;;;6222804;28;20033;-89
2023/03/10 14:14:25;;;;;;;1.02;0.98;;;;;;;;;;6232763;28;20464;-89
2023/03/10 14:17:30;;;;;;;0.30;0.30;;;;;;;;;;6233685;28;20029;-89
2023/03/10 14:20:48;;;;;;;0.57;0.57;;;;;;;;;;6211712;28;20037;-89
2023/03/10 14:23:50;;;;;;;2.28;2.15;;;;;;;;;;6231803;28;20021;-89
2023/03/10 14:26:50;;;;;;;2.17;1.92;;;;;;;;;;6227813;28;20029;-88
2023/03/10 14:29:55;;;;;;;1.80;1.70;;;;;;;;;;6240019;28;20029;-88
2023/03/10 14:32:56;;;;;;;0.32;0.32;;;;;;;;;;6226032;28;20029;-89
2023/03/10 14:35:56;;;;;;;4.60;2.15;;;;;;;;;;6235224;28;20033;-89
2023/03/10 14:38:56;;;;;;;0.53;0.53;;;;;;;;;;6242364;28;20045;-90
2023/03/10 14:41:56;;;;;;;1.07;1.00;;;;;;;;;;6229106;28;20029;-89
2023/03/10 14:45:07;;;;;;;1.20;0.77;;;;;;;;;;6253441;28;20033;-89
2023/03/10 14:48:12;;;;;;;0.68;0.68;;;;;;;;;;6231139;28;20101;-89
2023/03/10 14:51:14;;;;;;;8.15;1.95;;;;;;;;;;6244563;28;20471;-89
2023/03/10 14:54:18;;;;;;;2.00;1.35;;;;;;;;;;6248948;28;20063;-90
2023/03/10 14:57:19;;;;;;;2.15;1.95;;;;;;;;;;6205633;28;20111;-89
2023/03/10 15:00:20;;;;;;;1.25;1.25;;;;;;;;;;6234640;28;20053;-89
2023/03/10 15:03:20;;;;;;;0.63;0.63;;;;;;;;;;6233001;28;20040;-89
2023/03/10 15:06:21;;;;;;;0.70;0.70;;;;;;;;;;6229932;28;20339;-89
2023/03/10 15:09:21;;;;;;;1.90;1.37;;;;;;;;;;6234391;28;20035;-89
2023/03/10 15:12:21;;;;;;;4.50;1.57;;;;;;;;;;6239333;28;20022;-90
2023/03/10 15:15:23;;;;;;;3.17;2.87;;;;;;;;;;6236183;28;20049;-88
2023/03/10 15:18:25;;;;;;;0.85;0.85;;;;;;;;;;6249498;28;20068;-88
2023/03/10 15:21:26;;;;;;;2.17;2.00;;;;;;;;;;6249033;28;20111;-88
2023/03/10 15:24:26;;;;;;;1.80;1.70;;;;;;;;;;6238651;28;20037;-89
2023/03/10 15:27:26;;;;;;;0.53;0.53;;;;;;;;;;6259644;28;20031;-89
2023/03/10 15:30:31;;;;;;;1.57;1.47;;;;;;;;;;6241127;28;20029;-89
2023/03/10 15:33:31;;;;;;;1.52;1.42;;;;;;;;;;6237516;28;20033;-90
2023/03/10 15:36:32;;;;;;;1.07;1.03;;;;;;;;;;6270819;28;20017;-90
2023/03/10 15:39:33;;;;;;;0.60;0.60;;;;;;;;;;6250403;28;20174;-91
2023/03/10 15:42:33;;;;;;;1.40;1.17;;;;;;;;;;6256437;23;20305;-77
2023/03/10 15:45:37;;;;;;;1.27;1.17;;;;;;;;;;6217783;28;20025;-77
2023/03/10 15:48:37;;;;;;;0.90;0.90;;;;;;;;;;6219681;28;20021;-77
2023/03/10 15:51:37;;;;;;;0.65;0.65;;;;;;;;;;6219186;28;20025;-77
2023/03/10 15:54:37;;;;;;;8.25;1.55;;;;;;;;;;6216172;28;20468;-77
2023/03/10 15:57:38;;;;;;;3.47;1.90;;;;;;;;;;6216497;28;20395;-76
2023/03/10 16:00:38;;;;;;;1.13;1.03;;;;;;;;;;6195860;28;20486;-77
2023/03/10 16:03:38;;;;;;;3.27;2.67;;;;;;;;;;6200731;28;20013;-77
2023/03/10 16:06:38;;;;;;;3.40;3.05;;;;;;;;;;6225606;28;20025;-77
2023/03/10 16:09:39;;;;;;;4.50;2.53;;;;;;;;;;6240940;28;20010;-77
2023/03/10 16:12:39;;;;;;;2.97;2.77;;;;;;;;;;6241590;28;20032;-77
2023/03/10 16:15:39;;;;;;;2.40;2.20;;;;;;;;;;6238219;28;20081;-77
2023/03/10 16:18:39;;;;;;;1.57;1.53;;;;;;;;;;6238552;28;20017;-77
2023/03/10 16:21:40;;;;;;;2.90;2.70;;;;;;;;;;6240371;28;20021;-77
2023/03/10 16:24:40;;;;;;;8.93;3.03;;;;;;;;;;6242196;28;20028;-77
2023/03/10 16:27:41;;;;;;;3.53;2.53;;;;;;;;;;6239277;28;20036;-76
2023/03/10 16:30:41;;;;;;;1.33;1.23;;;;;;;;;;6240765;28;20025;-76
2023/03/10 16:33:42;;;;;;;0.73;0.73;;;;;;;;;;6240183;28;20264;-77
2023/03/10 16:36:43;;;;;;;1.67;1.23;;;;;;;;;;6240820;28;20510;-76
2023/03/10 16:39:43;;;;;;;2.40;2.10;;;;;;;;;;6238474;28;20017;-77
2023/03/10 16:42:45;;;;;;;3.00;1.53;;;;;;;;;;6251641;28;20060;-78
2023/03/10 16:45:47;;;;;;;1.33;1.23;;;;;;;;;;6239243;28;20406;-77
2023/03/10 16:48:47;;;;;;;2.30;1.88;;;;;;;;;;6261051;28;20092;-77
2023/03/10 16:51:48;;;;;;;1.37;1.27;;;;;;;;;;6260606;28;20024;-78
2023/03/10 16:54:49;;;;;;;1.70;1.53;;;;;;;;;;6264475;28;20040;-77
2023/03/10 16:57:49;;;;;;;0.75;0.75;;;;;;;;;;6258070;28;20013;-77
2023/03/10 17:00:50;;;;;;;0.87;0.87;;;;;;;;;;6255873;28;20028;-77
2023/03/10 17:03:51;;;;;;;1.30;1.13;;;;;;;;;;6236371;28;20575;-77
2023/03/10 17:06:51;;;;;;;1.43;1.00;;;;;;;;;;6255770;28;20541;-78
2023/03/10 17:09:51;;;;;;;0.80;0.80;;;;;;;;;;6259925;28;20534;-77
2023/03/10 17:12:51;;;;;;;2.60;2.38;;;;;;;;;;6269292;28;20013;-78
2023/03/10 17:15:51;;;;;;;6.75;1.70;;;;;;;;;;6249228;28;20534;-78
2023/03/10 17:18:52;;;;;;;5.83;3.47;;;;;;;;;;6240099;28;20029;-79
2023/03/10 17:21:52;;;;;;;1.17;1.13;;;;;;;;;;6263585;28;20471;-79
2023/03/10 17:24:53;;;;;;;1.83;1.73;;;;;;;;;;6266789;28;20060;-79
2023/03/10 17:27:53;;;;;;;9.63;3.23;;;;;;;;;;6261452;28;20021;-80
2023/03/10 17:30:53;;;;;;;1.50;1.45;;;;;;;;;;6264653;28;20219;-79
2023/03/10 17:33:55;;;;;;;4.32;2.63;;;;;;;;;;6266541;28;20033;-80
2023/03/10 17:36:55;;;;;;;1.70;1.58;;;;;;;;;;6256810;28;20035;-79
2023/03/10 17:39:56;;;;;;;1.43;1.33;;;;;;;;;;6264255;28;20852;-80
2023/03/10 17:42:56;;;;;;;1.43;1.33;;;;;;;;;;6265076;28;20066;-77
2023/03/10 17:45:56;;;;;;;4.90;4.53;;;;;;;;;;6259418;28;20036;-79
2023/03/10 17:48:57;;;;;;;1.63;1.57;;;;;;;;;;6260171;28;20112;-79
2023/03/10 17:51:57;;;;;;;10.37;3.50;;;;;;;;;;6265839;28;20112;-79
2023/03/10 17:54:58;;;;;;;0.47;0.47;;;;;;;;;;6259491;28;20032;-79
2023/03/10 17:57:58;;;;;;;1.73;1.60;;;;;;;;;;6261584;28;20100;-80
2023/03/10 18:01:05;;;;;;;0.90;0.87;;;;;;;;;;6263010;28;20024;-79
2023/03/10 18:04:05;;;;;;;5.60;3.38;;;;;;;;;;6257228;28;20017;-79
2023/03/10 18:07:06;;;;;;;3.57;3.27;;;;;;;;;;6248211;28;20059;-79
2023/03/10 18:10:07;;;;;;;1.37;0.80;;;;;;;;;;6266088;28;20020;-80
2023/03/10 18:13:09;;;;;;;1.65;1.55;;;;;;;;;;6263736;28;20025;-78